Pleasureville, Kentucky
Current Conditions -  °F | °C
As of 4:31 AM on Thursday 27 Nov 2014 (Local Time) from KFFT Reporting Station
Light Snow Light Snow  
Wind Chill: 25°   Ceiling: 2500
Heat Index: 31°   Visibility: 3mi
Dew Point: 28°   Wind: 6mph
Humidity: 89%   Direction: 330°NNW
Pressure: 30.11"   Gusts: NA
Location:  38.35°N, 85.12°W
Report Text: KFFT 270931Z AUTO 33005KT 3SM -SN BR SCT008 BKN025 OVC039 M01/M02 A3011 RMK AO2 P0000 T10061022
Loading
Personal Weather Stations






























Interactive Weather Map New forecast layout! Learn more

10-Day Weather Forecast

Advertisements
Track Severe Weather on mobile